Time;durP1;ratioP1;P1;durP2;ratioP2;P2;SDS_P1;SDS_P2;PMS_P1;PMS_P2;Temp;Humidity;BMP_temperature;BMP_pressure;BME280_temperature;BME280_humidity;BME280_pressure;Samples;Min_cycle;Max_cycle;Signal;HPM_P1;HPM_P2
2022/08/07 00:00:44;;;;;;;2.45;1.38;;;17.40;65.70;;;;;;4989941;28;20022;-73
2022/08/07 00:03:10;;;;;;;4.55;2.10;;;17.40;65.60;;;;;;4989878;28;20022;-73
2022/08/07 00:05:36;;;;;;;2.70;1.48;;;17.40;65.80;;;;;;4990637;28;20065;-73
2022/08/07 00:08:03;;;;;;;3.33;1.58;;;17.50;65.60;;;;;;4989762;28;20038;-72
2022/08/07 00:10:29;;;;;;;3.45;1.58;;;17.40;65.50;;;;;;4990160;28;20501;-73
2022/08/07 00:12:56;;;;;;;3.72;1.77;;;17.40;65.70;;;;;;4990091;28;20061;-73
2022/08/07 00:15:21;;;;;;;4.53;1.58;;;17.40;65.60;;;;;;4990102;28;20031;-73
2022/08/07 00:17:48;;;;;;;2.90;1.58;;;17.40;65.70;;;;;;4990014;28;20396;-73
2022/08/07 00:20:13;;;;;;;4.03;2.33;;;17.40;65.80;;;;;;4990163;28;20513;-73
2022/08/07 00:22:39;;;;;;;3.08;1.40;;;17.40;66.00;;;;;;4989520;28;20046;-71
2022/08/07 00:25:07;;;;;;;3.25;1.48;;;17.40;65.90;;;;;;4990326;28;20026;-73
2022/08/07 00:27:33;;;;;;;3.70;1.60;;;17.30;65.80;;;;;;4989661;28;20038;-73
2022/08/07 00:29:58;;;;;;;3.45;1.63;;;17.30;65.80;;;;;;4989952;28;20088;-72
2022/08/07 00:32:24;;;;;;;3.63;1.83;;;17.20;65.70;;;;;;4989724;28;20030;-73
2022/08/07 00:34:50;;;;;;;3.38;1.90;;;17.20;65.90;;;;;;4988891;28;20022;-73
2022/08/07 00:37:16;;;;;;;2.53;1.42;;;17.20;66.10;;;;;;4990524;28;20539;-72
2022/08/07 00:39:41;;;;;;;3.83;1.95;;;17.10;66.10;;;;;;4989800;28;20496;-72
2022/08/07 00:42:07;;;;;;;4.70;2.22;;;17.20;66.00;;;;;;4989374;28;20054;-73
2022/08/07 00:44:34;;;;;;;5.07;2.20;;;17.20;66.20;;;;;;4989402;28;20382;-73
2022/08/07 00:47:04;;;;;;;3.15;1.50;;;17.10;66.10;;;;;;4989502;28;20057;-72
2022/08/07 00:49:30;;;;;;;3.60;1.88;;;17.10;66.10;;;;;;4989840;28;20469;-72
2022/08/07 00:51:56;;;;;;;5.13;2.38;;;17.10;66.20;;;;;;4991681;28;20097;-72
2022/08/07 00:54:22;;;;;;;3.92;1.92;;;17.10;66.30;;;;;;4993094;28;20022;-73
2022/08/07 00:56:48;;;;;;;4.38;1.58;;;17.10;66.20;;;;;;4993842;28;20496;-72
2022/08/07 00:59:14;;;;;;;3.55;1.92;;;17.10;65.90;;;;;;4993976;28;20027;-72
2022/08/07 01:01:40;;;;;;;3.47;1.88;;;17.10;65.90;;;;;;4993454;28;20026;-73
2022/08/07 01:04:07;;;;;;;6.18;2.13;;;17.00;66.00;;;;;;4994204;28;20137;-72
2022/08/07 01:06:33;;;;;;;3.67;2.10;;;17.00;66.10;;;;;;4994205;28;20060;-72
2022/08/07 01:09:00;;;;;;;4.57;2.40;;;17.00;66.00;;;;;;4994467;28;20034;-72
2022/08/07 01:11:31;;;;;;;5.50;2.45;;;17.00;66.00;;;;;;4993886;28;20026;-72
2022/08/07 01:14:00;;;;;;;3.35;2.03;;;17.00;65.90;;;;;;4994400;28;20056;-73
2022/08/07 01:16:27;;;;;;;7.00;2.95;;;17.00;66.00;;;;;;4994147;28;20032;-73
2022/08/07 01:18:53;;;;;;;4.50;2.40;;;17.00;66.00;;;;;;4994456;28;20085;-72
2022/08/07 01:21:22;;;;;;;5.53;2.70;;;17.00;66.60;;;;;;4993543;28;20037;-72
2022/08/07 01:23:50;;;;;;;5.55;2.80;;;17.00;66.10;;;;;;4993984;28;20112;-73
2022/08/07 01:26:17;;;;;;;4.45;2.38;;;17.00;66.20;;;;;;4994658;28;20057;-74
2022/08/07 01:28:44;;;;;;;5.35;3.08;;;17.00;66.10;;;;;;4993788;28;20030;-72
2022/08/07 01:31:10;;;;;;;5.10;3.10;;;17.00;66.20;;;;;;4993103;28;20492;-72
2022/08/07 01:33:36;;;;;;;5.60;3.33;;;17.00;66.30;;;;;;4993607;28;20023;-72
2022/08/07 01:36:03;;;;;;;5.80;3.03;;;17.00;66.30;;;;;;4992640;28;20062;-73
2022/08/07 01:38:29;;;;;;;4.78;2.50;;;17.00;66.30;;;;;;4976071;28;20117;-72
2022/08/07 01:40:58;;;;;;;5.75;2.60;;;16.90;66.20;;;;;;4993876;28;20081;-73
2022/08/07 01:43:27;;;;;;;5.18;2.97;;;16.90;66.20;;;;;;4993956;28;20050;-73
2022/08/07 01:45:54;;;;;;;4.60;2.55;;;16.90;66.30;;;;;;4994867;28;20084;-73
2022/08/07 01:48:20;;;;;;;4.78;2.95;;;16.90;66.30;;;;;;4993897;28;20042;-73
2022/08/07 01:50:51;;;;;;;5.00;2.85;;;16.90;66.50;;;;;;4993811;28;20059;-74
2022/08/07 01:53:20;;;;;;;5.40;3.20;;;16.90;66.70;;;;;;4976065;28;20026;-73
2022/08/07 01:55:50;;;;;;;5.15;3.40;;;16.90;66.60;;;;;;4993074;28;20018;-73
2022/08/07 01:58:19;;;;;;;;;;;16.90;66.70;;;;;;4994175;28;20022;-73
2022/08/07 02:00:49;;;;;;;4.85;2.38;;;16.90;66.40;;;;;;4993719;28;19977;-73
2022/08/07 02:03:20;;;;;;;9.15;3.00;;;16.90;66.30;;;;;;4992435;28;20023;-71
2022/08/07 02:05:53;;;;;;;;;;;16.80;66.30;;;;;;4994062;28;20085;-72
2022/08/07 02:08:22;;;;;;;5.78;3.38;;;16.90;66.40;;;;;;4994020;28;19965;-72
2022/08/07 02:10:52;;;;;;;6.80;3.47;;;16.90;66.50;;;;;;4993446;28;20026;-72
2022/08/07 02:13:23;;;;;;;8.48;3.33;;;16.90;66.70;;;;;;4993193;28;20037;-72
2022/08/07 02:15:50;;;;;;;6.28;2.92;;;16.90;66.50;;;;;;4993093;28;20050;-73
2022/08/07 02:18:18;;;;;;;6.05;3.80;;;16.90;66.60;;;;;;4992808;28;20026;-72
2022/08/07 02:20:45;;;;;;;6.00;3.22;;;17.00;66.60;;;;;;4991506;28;20068;-72
2022/08/07 02:23:13;;;;;;;5.07;2.97;;;17.00;66.50;;;;;;4992740;28;20025;-72
2022/08/07 02:25:44;;;;;;;5.20;3.58;;;17.00;66.60;;;;;;4993141;28;20019;-73
2022/08/07 02:28:11;;;;;;;5.75;3.17;;;17.00;67.20;;;;;;4992871;28;20034;-72
2022/08/07 02:30:38;;;;;;;7.03;3.38;;;17.00;66.60;;;;;;4992647;28;20537;-74
2022/08/07 02:33:05;;;;;;;5.85;2.83;;;17.00;66.70;;;;;;4992768;28;20027;-74
2022/08/07 02:35:33;;;;;;;7.00;3.35;;;16.90;66.70;;;;;;4992997;28;20032;-71
2022/08/07 02:38:02;;;;;;;5.85;3.13;;;16.90;66.70;;;;;;4993082;28;20022;-72
2022/08/07 02:40:33;;;;;;;5.57;3.30;;;16.90;66.70;;;;;;4975325;28;20022;-73
2022/08/07 02:43:00;;;;;;;5.97;3.25;;;16.80;67.00;;;;;;4977613;28;20037;-73
2022/08/07 02:45:29;;;;;;;7.18;3.95;;;16.80;67.00;;;;;;4992553;28;20026;-73
2022/08/07 02:47:55;;;;;;;6.25;3.63;;;16.80;67.10;;;;;;4993317;28;20042;-73
2022/08/07 02:50:20;;;;;;;5.85;3.40;;;16.80;67.30;;;;;;4992754;28;20054;-73
2022/08/07 02:52:53;;;;;;;6.00;3.60;;;16.80;67.20;;;;;;4992193;28;20622;-73
2022/08/07 02:55:30;;;;;;;6.68;4.10;;;16.70;67.40;;;;;;4992740;28;20038;-73
2022/08/07 02:58:03;;;;;;;5.88;3.33;;;16.70;67.60;;;;;;4992628;28;20054;-73
2022/08/07 03:00:34;;;;;;;5.50;3.05;;;16.70;67.60;;;;;;4992463;28;20179;-73
2022/08/07 03:03:01;;;;;;;6.88;3.85;;;16.70;67.70;;;;;;4992071;28;20029;-73
2022/08/07 03:05:27;;;;;;;5.18;2.83;;;16.70;67.60;;;;;;4991916;28;20050;-73
2022/08/07 03:07:55;;;;;;;6.35;3.92;;;16.70;68.00;;;;;;4991886;28;20035;-73
2022/08/07 03:10:21;;;;;;;8.57;4.25;;;16.70;67.50;;;;;;4992257;28;20029;-72
2022/08/07 03:12:49;;;;;;;6.95;3.17;;;16.70;67.40;;;;;;4991533;28;20122;-72
2022/08/07 03:15:16;;;;;;;6.15;3.50;;;16.70;67.30;;;;;;4992022;28;20160;-72
2022/08/07 03:17:43;;;;;;;7.43;3.40;;;16.60;67.20;;;;;;4991351;28;20022;-71
2022/08/07 03:20:09;;;;;;;8.82;3.92;;;16.60;67.60;;;;;;4974985;28;20030;-72
2022/08/07 03:22:37;;;;;;;7.22;4.18;;;16.60;67.80;;;;;;4991679;28;20030;-72
2022/08/07 03:25:03;;;;;;;4.90;3.33;;;16.60;67.90;;;;;;4991657;28;20440;-72
2022/08/07 03:27:29;;;;;;;6.07;3.70;;;16.60;67.80;;;;;;4974060;28;20088;-73
2022/08/07 03:29:55;;;;;;;7.07;4.05;;;16.60;67.90;;;;;;4991815;28;20034;-72
2022/08/07 03:32:35;;;;;;;6.03;3.78;;;16.60;67.90;;;;;;4974212;28;20045;-72
2022/08/07 03:35:03;;;;;;;6.50;3.65;;;16.60;67.90;;;;;;4991790;28;20030;-73
2022/08/07 03:37:31;;;;;;;7.45;4.78;;;16.60;67.50;;;;;;4973772;28;20073;-73
2022/08/07 03:39:58;;;;;;;6.18;3.88;;;16.60;67.80;;;;;;4991314;28;20089;-73
2022/08/07 03:42:24;;;;;;;8.38;5.05;;;16.50;67.80;;;;;;4973893;28;20092;-73
2022/08/07 03:44:51;;;;;;;8.32;4.82;;;16.50;68.20;;;;;;4990737;28;20673;-72
2022/08/07 03:47:17;;;;;;;7.10;4.18;;;16.50;68.50;;;;;;4972884;28;20038;-73
2022/08/07 03:49:43;;;;;;;8.48;4.63;;;16.40;68.50;;;;;;4990681;28;20034;-72
2022/08/07 03:52:10;;;;;;;7.53;4.38;;;16.40;68.60;;;;;;4984398;28;20022;-71
2022/08/07 03:54:37;;;;;;;6.55;3.90;;;16.40;68.60;;;;;;4985392;28;20022;-72
2022/08/07 03:57:04;;;;;;;7.53;4.32;;;16.40;68.50;;;;;;4990727;28;20037;-74
2022/08/07 03:59:31;;;;;;;7.05;3.85;;;16.50;68.60;;;;;;4989532;28;20054;-73
2022/08/07 04:01:57;;;;;;;7.95;4.32;;;16.40;68.50;;;;;;4990345;28;20023;-73
2022/08/07 04:04:23;;;;;;;7.97;5.40;;;16.40;68.50;;;;;;4989993;28;20513;-73
2022/08/07 04:06:50;;;;;;;8.23;5.45;;;16.40;68.80;;;;;;4989731;28;20066;-74
2022/08/07 04:09:16;;;;;;;7.45;4.45;;;16.40;69.00;;;;;;4990254;28;20033;-73
2022/08/07 04:11:44;;;;;;;6.50;3.83;;;16.40;69.00;;;;;;4990464;28;20019;-74
2022/08/07 04:14:10;;;;;;;7.55;4.10;;;16.40;69.00;;;;;;4990903;28;20027;-73
2022/08/07 04:16:36;;;;;;;7.40;5.00;;;16.50;69.00;;;;;;4990882;28;20033;-73
2022/08/07 04:19:03;;;;;;;7.43;4.90;;;16.50;68.60;;;;;;4990984;28;20510;-73
2022/08/07 04:21:29;;;;;;;7.30;4.70;;;16.50;68.90;;;;;;4990668;28;20026;-73
2022/08/07 04:23:56;;;;;;;8.95;5.80;;;16.50;68.90;;;;;;4990535;28;20026;-74
2022/08/07 04:26:23;;;;;;;9.82;6.00;;;16.50;68.90;;;;;;4990249;28;20022;-73
2022/08/07 04:28:49;;;;;;;8.40;5.63;;;16.40;68.90;;;;;;4990488;28;20038;-73
2022/08/07 04:31:15;;;;;;;7.65;5.15;;;16.50;69.00;;;;;;4999669;28;20524;-73
2022/08/07 04:33:41;;;;;;;7.80;5.18;;;16.50;69.10;;;;;;4991935;28;20080;-73
2022/08/07 04:36:07;;;;;;;7.28;4.30;;;16.50;69.20;;;;;;4985243;28;20030;-73
2022/08/07 04:38:34;;;;;;;8.50;5.13;;;16.50;69.20;;;;;;4977301;28;20089;-73
2022/08/07 04:41:06;;;;;;;7.97;5.40;;;16.50;69.30;;;;;;4972622;28;20034;-73
2022/08/07 04:43:36;;;;;;;7.70;4.60;;;16.50;69.30;;;;;;4987879;28;20057;-73
2022/08/07 04:46:02;;;;;;;;;;;16.50;69.20;;;;;;4973520;28;20045;-72
2022/08/07 04:48:56;;;;;;;9.38;5.55;;;16.50;69.00;;;;;;4991203;28;19922;-72
2022/08/07 04:51:34;;;;;;;7.93;5.43;;;16.60;69.40;;;;;;4991361;28;20019;-72
2022/08/07 04:54:09;;;;;;;7.85;5.60;;;16.60;69.30;;;;;;4991229;28;20030;-72
2022/08/07 04:57:01;;;;;;;7.80;5.03;;;16.60;69.40;;;;;;4990917;28;20054;-73
2022/08/07 04:59:35;;;;;;;7.88;5.57;;;16.60;69.50;;;;;;4991058;28;20099;-74
2022/08/07 05:02:07;;;;;;;11.60;5.72;;;16.60;69.60;;;;;;4995725;28;20094;-72
2022/08/07 05:04:49;;;;;;;9.48;6.72;;;16.60;69.70;;;;;;4992895;28;20046;-72
2022/08/07 05:07:27;;;;;;;12.45;6.55;;;16.60;69.80;;;;;;4977414;28;20346;-73
2022/08/07 05:10:03;;;;;;;9.60;6.68;;;16.70;69.80;;;;;;4997716;28;20385;-73
2022/08/07 05:12:35;;;;;;;8.45;5.55;;;16.70;69.80;;;;;;4997992;28;20030;-72
2022/08/07 05:15:17;;;;;;;8.77;6.03;;;16.70;69.60;;;;;;4998227;28;20030;-74
2022/08/07 05:17:50;;;;;;;12.68;8.43;;;16.70;69.70;;;;;;4998835;28;20022;-73
2022/08/07 05:20:23;;;;;;;11.63;8.07;;;16.80;69.70;;;;;;4998685;28;20022;-72
2022/08/07 05:22:56;;;;;;;10.60;6.18;;;16.80;69.60;;;;;;4981228;28;20086;-73
2022/08/07 05:25:23;;;;;;;9.23;6.10;;;16.90;69.30;;;;;;4999822;28;20030;-74
2022/08/07 05:27:49;;;;;;;9.07;5.97;;;17.00;69.00;;;;;;4998863;28;20117;-74
2022/08/07 05:30:17;;;;;;;9.77;5.90;;;17.00;68.70;;;;;;4998562;28;20042;-73
2022/08/07 05:32:46;;;;;;;10.40;6.72;;;17.00;68.80;;;;;;4994467;28;20389;-73
2022/08/07 05:35:14;;;;;;;9.15;6.85;;;17.00;68.80;;;;;;4993614;28;20030;-74
2022/08/07 05:37:40;;;;;;;10.60;6.85;;;17.00;69.00;;;;;;4978286;28;20390;-73
2022/08/07 05:40:08;;;;;;;10.45;7.50;;;17.10;68.80;;;;;;4982693;28;20034;-73
2022/08/07 05:42:36;;;;;;;9.15;5.22;;;17.10;68.90;;;;;;4989671;28;20042;-73
2022/08/07 05:45:04;;;;;;;8.15;4.60;;;17.20;68.50;;;;;;5000928;28;20026;-73
2022/08/07 05:47:32;;;;;;;12.48;6.35;;;17.20;68.00;;;;;;5002465;28;20039;-73
2022/08/07 05:50:01;;;;;;;7.80;5.22;;;17.30;68.30;;;;;;5002603;28;20086;-73
2022/08/07 05:52:27;;;;;;;7.03;4.93;;;17.30;68.30;;;;;;5002100;28;20041;-73
2022/08/07 05:54:54;;;;;;;8.98;5.90;;;17.40;68.30;;;;;;4998703;28;20026;-73
2022/08/07 05:57:22;;;;;;;7.85;4.97;;;17.40;68.30;;;;;;5002568;28;20026;-72
2022/08/07 05:59:48;;;;;;;8.70;4.88;;;17.50;68.30;;;;;;4999061;28;20094;-73
2022/08/07 06:02:17;;;;;;;9.75;5.80;;;17.60;68.30;;;;;;5002649;28;20026;-73
2022/08/07 06:04:49;;;;;;;9.32;4.75;;;17.70;68.30;;;;;;5001766;28;20058;-73
2022/08/07 06:07:16;;;;;;;5.72;4.00;;;17.80;67.10;;;;;;5001057;28;20113;-73
2022/08/07 06:09:43;;;;;;;5.90;3.65;;;17.90;65.40;;;;;;5014571;28;20930;-74
2022/08/07 06:12:10;;;;;;;7.07;4.00;;;18.00;64.50;;;;;;4988610;28;20022;-73
2022/08/07 06:14:36;;;;;;;7.45;4.88;;;18.10;65.10;;;;;;5014666;28;20085;-73
2022/08/07 06:17:03;;;;;;;7.68;4.43;;;18.20;65.50;;;;;;4999806;28;20031;-73
2022/08/07 06:19:31;;;;;;;6.55;3.53;;;18.30;65.10;;;;;;5001241;28;20018;-73
2022/08/07 06:21:57;;;;;;;7.97;5.10;;;18.40;64.50;;;;;;5001253;28;20023;-74
2022/08/07 06:24:23;;;;;;;7.05;4.80;;;18.50;65.10;;;;;;5002481;28;20030;-74
2022/08/07 06:26:49;;;;;;;9.63;4.43;;;18.60;65.40;;;;;;4981186;28;20045;-72
2022/08/07 06:29:14;;;;;;;8.52;5.80;;;18.70;64.40;;;;;;5001856;28;20101;-73
2022/08/07 06:31:40;;;;;;;10.57;6.63;;;18.70;64.50;;;;;;5001728;28;20034;-68
2022/08/07 06:34:07;;;;;;;10.15;5.65;;;18.70;65.20;;;;;;4999525;28;20054;-68
2022/08/07 06:36:32;;;;;;;8.60;5.00;;;18.80;66.20;;;;;;4999332;28;20023;-69
2022/08/07 06:38:59;;;;;;;10.88;4.80;;;19.20;66.90;;;;;;5000588;28;20033;-68
2022/08/07 06:41:30;;;;;;;7.60;5.00;;;19.60;65.90;;;;;;5000964;28;20030;-68
2022/08/07 06:43:57;;;;;;;10.00;5.20;;;20.00;65.20;;;;;;4982808;28;20050;-68
2022/08/07 06:46:23;;;;;;;7.15;4.50;;;20.40;64.20;;;;;;4981127;28;20393;-68
2022/08/07 06:48:49;;;;;;;7.63;4.38;;;20.70;63.00;;;;;;4992246;28;20039;-69
2022/08/07 06:51:18;;;;;;;8.43;4.30;;;20.90;62.10;;;;;;5001405;28;20030;-69
2022/08/07 06:53:45;;;;;;;10.32;4.55;;;21.10;61.60;;;;;;5001869;28;20117;-68
2022/08/07 06:56:13;;;;;;;10.07;4.78;;;21.20;61.00;;;;;;5001310;28;20056;-69
2022/08/07 06:58:39;;;;;;;9.00;4.10;;;21.40;60.60;;;;;;5002246;28;20054;-69
2022/08/07 07:01:07;;;;;;;7.90;4.68;;;21.50;60.20;;;;;;5001472;28;20501;-69
2022/08/07 07:03:37;;;;;;;8.50;4.60;;;21.60;59.80;;;;;;5001417;28;20097;-69
2022/08/07 07:06:02;;;;;;;6.17;3.90;;;21.60;59.40;;;;;;4999971;28;20037;-69
2022/08/07 07:08:29;;;;;;;8.13;4.32;;;21.70;59.10;;;;;;4999963;28;20038;-68
2022/08/07 07:10:58;;;;;;;6.47;3.70;;;21.80;58.70;;;;;;4985021;28;20031;-69
2022/08/07 07:13:43;;;;;;;7.53;4.53;;;21.90;58.60;;;;;;4998553;28;20641;-69
2022/08/07 07:16:17;;;;;;;5.57;3.60;;;21.90;58.80;;;;;;4995273;28;20018;-69
2022/08/07 07:18:56;;;;;;;6.20;3.95;;;22.10;57.80;;;;;;5000100;28;20042;-70
2022/08/07 07:21:26;;;;;;;7.40;4.05;;;22.20;57.50;;;;;;5000799;28;20380;-67
2022/08/07 07:23:54;;;;;;;6.68;3.78;;;22.30;57.10;;;;;;4984587;28;20081;-68
2022/08/07 07:26:21;;;;;;;7.45;3.67;;;22.40;56.90;;;;;;5001246;28;20038;-68
2022/08/07 07:28:56;;;;;;;7.05;3.28;;;22.30;56.80;;;;;;5001707;28;20133;-69
2022/08/07 07:31:38;;;;;;;5.22;3.10;;;22.40;56.70;;;;;;5000854;28;20034;-68
2022/08/07 07:34:08;;;;;;;8.02;3.50;;;22.40;56.50;;;;;;5000784;28;20456;-69
2022/08/07 07:36:37;;;;;;;7.32;3.15;;;22.40;56.40;;;;;;4998225;28;20026;-70
2022/08/07 07:39:04;;;;;;;4.68;2.53;;;22.50;55.80;;;;;;5000025;28;20041;-69
2022/08/07 07:41:32;;;;;;;6.13;3.13;;;22.60;55.50;;;;;;5000030;28;20058;-68
2022/08/07 07:43:59;;;;;;;5.03;2.92;;;22.60;55.30;;;;;;5002372;28;20022;-70
2022/08/07 07:46:27;;;;;;;5.65;2.83;;;22.60;55.30;;;;;;4998582;28;20441;-69
2022/08/07 07:48:54;;;;;;;5.65;3.08;;;22.70;55.20;;;;;;4995758;28;20117;-69
2022/08/07 07:51:22;;;;;;;4.70;2.45;;;22.90;55.00;;;;;;4999359;28;20038;-69
2022/08/07 07:53:50;;;;;;;6.53;2.42;;;23.10;54.70;;;;;;4999950;28;20027;-69
2022/08/07 07:56:16;;;;;;;5.53;3.00;;;23.10;54.30;;;;;;4992392;28;20026;-70
2022/08/07 07:58:43;;;;;;;5.07;2.25;;;23.20;54.30;;;;;;4986988;28;20059;-69
2022/08/07 08:01:10;;;;;;;4.35;2.38;;;23.30;53.80;;;;;;4976544;28;20087;-69
2022/08/07 08:03:39;;;;;;;4.85;2.10;;;23.40;53.30;;;;;;4976728;28;20046;-69
2022/08/07 08:06:06;;;;;;;8.77;2.30;;;23.40;53.10;;;;;;4974887;28;20030;-68
2022/08/07 08:08:34;;;;;;;4.75;2.25;;;23.60;53.20;;;;;;4970363;28;20100;-68
2022/08/07 08:11:00;;;;;;;4.47;1.50;;;23.70;52.70;;;;;;4974316;28;20482;-69
2022/08/07 08:13:41;;;;;;;5.03;2.75;;;23.80;52.70;;;;;;4994092;28;20038;-76
2022/08/07 08:16:10;;;;;;;7.25;2.80;;;23.80;52.00;;;;;;4994412;28;20033;-74
2022/08/07 08:18:37;;;;;;;7.05;2.13;;;23.90;50.30;;;;;;4995331;28;20026;-73
2022/08/07 08:21:03;;;;;;;3.90;1.80;;;23.90;51.30;;;;;;4996936;28;20425;-74
2022/08/07 08:29:03;;;;;;;4.50;1.77;;;23.90;49.90;;;;;;4994987;28;20928;-75
2022/08/07 08:31:32;;;;;;;3.03;1.35;;;24.00;49.40;;;;;;4996236;28;20018;-75
2022/08/07 08:34:03;;;;;;;3.65;1.42;;;24.10;51.30;;;;;;4997889;28;20031;-75
2022/08/07 08:36:31;;;;;;;6.10;2.00;;;24.10;50.90;;;;;;4990388;28;20031;-75
2022/08/07 08:39:00;;;;;;;7.72;1.73;;;24.20;48.50;;;;;;4968960;28;20022;-76
2022/08/07 09:20:27;;;;;;;4.32;1.67;;;;;;;;;;4020691;27;1211217;-73
2022/08/07 09:22:53;;;;;;;4.82;2.22;;;;;;;;;;5097965;28;20111;-75
2022/08/07 09:25:19;;;;;;;5.53;1.80;;;;;;;;;;5098170;28;20036;-75
2022/08/07 09:28:03;;;;;;;3.25;1.70;;;;;;;;;;5097499;28;20032;-74
2022/08/07 09:30:41;;;;;;;6.53;2.25;;;;;;;;;;5097965;28;20024;-73
2022/08/07 09:33:27;;;;;;;3.35;1.50;;;;;;;;;;5096134;28;20033;-74
2022/08/07 09:36:02;;;;;;;5.13;1.83;;;;;;;;;;5097722;28;20027;-74
2022/08/07 09:38:38;;;;;;;5.82;2.45;;;;;;;;;;5080396;28;20082;-74
2022/08/07 09:41:23;;;;;;;6.15;2.75;;;;;;;;;;5076751;28;20036;-73
2022/08/07 09:44:19;;;;;;;4.63;1.50;;;;;;;;;;5076635;28;20031;-74
2022/08/07 09:47:00;;;;;;;5.13;1.90;;;;;;;;;;5063349;28;20045;-74
2022/08/07 09:49:27;;;;;;;3.72;1.75;;;;;;;;;;5077466;28;20028;-75
2022/08/07 09:51:59;;;;;;;3.25;1.83;;;;;;;;;;5075661;28;20561;-75
2022/08/07 09:54:34;;;;;;;4.93;1.88;;;;;;;;;;5076563;28;20490;-75
2022/08/07 09:57:09;;;;;;;6.40;1.85;;;;;;;;;;5072703;28;20047;-74
2022/08/07 09:59:41;;;;;;;4.88;1.83;;;;;;;;;;5075879;28;20039;-75
2022/08/07 10:02:07;;;;;;;3.50;1.80;;;;;;;;;;5076311;28;20037;-75
2022/08/07 10:04:43;;;;;;;4.43;1.65;;;;;;;;;;5075765;28;20025;-75
2022/08/07 10:07:15;;;;;;;5.70;1.67;;;;;;;;;;5073975;28;20028;-76
2022/08/07 10:09:41;;;;;;;4.05;2.03;;;;;;;;;;5075548;28;20074;-74
2022/08/07 10:12:10;;;;;;;4.18;2.00;;;;;;;;;;5078071;28;20061;-76
2022/08/07 10:15:00;;;;;;;4.32;2.25;;;;;;;;;;5087201;28;20025;-75
2022/08/07 10:17:32;;;;;;;5.70;2.03;;;;;;;;;;5056591;28;20112;-75
2022/08/07 10:20:11;;;;;;;2.88;1.65;;;;;;;;;;5057907;28;20033;-75
2022/08/07 10:22:47;;;;;;;4.47;2.22;;;;;;;;;;5075664;28;20044;-75
2022/08/07 10:25:13;;;;;;;4.43;2.70;;;;;;;;;;5075932;28;20037;-75
2022/08/07 10:27:58;;;;;;;4.97;2.35;;;;;;;;;;5075406;28;20036;-75
2022/08/07 10:30:24;;;;;;;3.67;2.17;;;;;;;;;;5069048;28;20086;-75
2022/08/07 10:32:56;;;;;;;4.63;2.13;;;;;;;;;;5061669;28;20032;-74
2022/08/07 10:35:23;;;;;;;3.85;1.63;;;;;;;;;;5060742;28;20029;-76
2022/08/07 10:37:59;;;;;;;8.77;2.33;;;;;;;;;;5061495;28;20074;-75
2022/08/07 10:40:44;;;;;;;7.05;2.28;;;;;;;;;;5060661;28;20112;-76
2022/08/07 10:43:20;;;;;;;6.72;2.03;;;;;;;;;;5061327;28;20021;-75
2022/08/07 10:45:51;;;;;;;16.48;3.67;;;;;;;;;;5060865;28;20055;-76
2022/08/07 10:48:36;;;;;;;10.00;2.67;;;;;;;;;;5062783;28;20100;-76
2022/08/07 10:51:06;;;;;;;11.50;2.30;;;;;;;;;;5062006;28;20102;-75
2022/08/07 10:53:32;;;;;;;;;;;;;;;;;;5079116;28;20035;-75
2022/08/07 10:56:02;;;;;;;4.47;2.28;;;;;;;;;;5099077;28;19904;-75
2022/08/07 10:58:34;;;;;;;4.10;2.10;;;;;;;;;;5098221;28;20047;-76
2022/08/07 11:01:15;;;;;;;4.93;1.95;;;;;;;;;;5099154;28;20055;-75
2022/08/07 11:03:48;;;;;;;5.13;2.20;;;;;;;;;;5089558;28;20048;-74
2022/08/07 11:06:21;;;;;;;4.53;2.05;;;;;;;;;;5079811;28;20056;-75
2022/08/07 11:09:02;;;;;;;4.03;2.30;;;;;;;;;;5078471;28;20024;-75
2022/08/07 11:11:33;;;;;;;4.65;2.28;;;;;;;;;;5074440;28;20020;-75
2022/08/07 11:14:04;;;;;;;3.25;1.98;;;;;;;;;;5074116;28;20047;-76
2022/08/07 11:16:33;;;;;;;3.13;1.73;;;;;;;;;;5060366;28;20126;-75
2022/08/07 11:19:18;;;;;;;3.47;1.53;;;;;;;;;;5079446;28;20044;-76
2022/08/07 11:21:45;;;;;;;4.88;2.20;;;;;;;;;;5095382;28;20853;-73
2022/08/07 11:24:20;;;;;;;4.28;2.05;;;;;;;;;;5093831;28;20529;-74
2022/08/07 11:26:47;;;;;;;4.68;2.03;;;;;;;;;;5068563;28;20073;-75
2022/08/07 11:29:34;;;;;;;4.18;1.70;;;;;;;;;;5073756;28;20029;-74
2022/08/07 11:32:04;;;;;;;4.57;2.67;;;;;;;;;;5071640;28;20017;-75
2022/08/07 11:34:33;;;;;;;4.32;2.28;;;;;;;;;;5072923;28;20051;-75
2022/08/07 11:37:04;;;;;;;5.27;2.27;;;;;;;;;;5072176;28;20431;-74
2022/08/07 11:39:49;;;;;;;3.38;2.03;;;;;;;;;;5071983;28;20513;-75
2022/08/07 11:42:21;;;;;;;3.63;2.17;;;;;;;;;;5071968;28;20028;-76
2022/08/07 11:44:50;;;;;;;3.30;2.00;;;;;;;;;;5072466;28;20078;-76
2022/08/07 11:47:28;;;;;;;6.72;2.10;;;;;;;;;;5092681;28;20115;-76
2022/08/07 11:50:12;;;;;;;3.28;1.75;;;;;;;;;;5074680;28;20024;-76
2022/08/07 11:52:45;;;;;;;5.50;2.50;;;;;;;;;;5052413;28;20388;-75
2022/08/07 11:55:14;;;;;;;4.10;2.40;;;;;;;;;;5051840;28;20039;-76
2022/08/07 11:57:46;;;;;;;3.40;1.63;;;;;;;;;;5052377;28;20562;-75
2022/08/07 12:00:14;;;;;;;4.55;2.30;;;;;;;;;;5052471;28;20299;-75
2022/08/07 12:02:41;;;;;;;4.78;2.03;;;;;;;;;;5051461;28;20021;-75
2022/08/07 12:05:07;;;;;;;5.13;2.40;;;;;;;;;;5071603;28;20059;-75
2022/08/07 12:07:37;;;;;;;4.22;2.15;;;;;;;;;;5087949;28;20551;-76
2022/08/07 12:10:15;;;;;;;5.93;2.03;;;;;;;;;;5091842;28;20036;-77
2022/08/07 12:12:43;;;;;;;6.65;2.75;;;;;;;;;;5092452;28;20077;-75
2022/08/07 12:15:15;;;;;;;5.78;2.53;;;;;;;;;;5081816;28;20111;-77
2022/08/07 12:17:44;;;;;;;4.57;2.58;;;;;;;;;;5071630;28;20075;-76
2022/08/07 12:20:17;;;;;;;5.20;2.50;;;;;;;;;;5071601;28;20473;-74
2022/08/07 12:22:55;;;;;;;7.22;2.50;;;;;;;;;;5087830;28;20063;-74
2022/08/07 12:25:52;;;;;;;5.22;2.53;;;;;;;;;;5092045;28;20047;-74
2022/08/07 12:28:38;;;;;;;3.35;1.98;;;;;;;;;;5076177;28;20037;-75
2022/08/07 12:31:12;;;;;;;3.30;1.95;;;;;;;;;;5054317;28;20047;-74
2022/08/07 12:33:40;;;;;;;4.93;2.40;;;;;;;;;;5071475;28;20052;-74
2022/08/07 12:36:07;;;;;;;5.57;2.30;;;;;;;;;;5071805;28;20024;-73
2022/08/07 12:38:33;;;;;;;4.32;2.13;;;;;;;;;;5072898;28;20039;-73
2022/08/07 12:41:00;;;;;;;4.45;2.50;;;;;;;;;;5077763;28;20032;-74
2022/08/07 12:43:30;;;;;;;4.85;1.90;;;;;;;;;;5072095;28;20394;-74
2022/08/07 12:46:09;;;;;;;3.50;2.15;;;;;;;;;;5077343;28;20024;-74
2022/08/07 12:48:47;;;;;;;4.45;2.38;;;;;;;;;;5091447;28;20035;-74
2022/08/07 12:51:33;;;;;;;4.40;2.58;;;;;;;;;;5091145;28;20024;-76
2022/08/07 12:54:03;;;;;;;4.50;2.10;;;;;;;;;;5078009;28;20440;-75
2022/08/07 12:56:31;;;;;;;3.47;2.10;;;;;;;;;;5092235;28;20031;-75
2022/08/07 12:58:59;;;;;;;6.57;2.42;;;;;;;;;;5091679;28;20302;-75
2022/08/07 13:01:25;;;;;;;5.50;2.10;;;;;;;;;;5091724;28;20483;-76
2022/08/07 13:04:13;;;;;;;5.18;2.20;;;;;;;;;;5085850;28;20458;-74
2022/08/07 13:06:46;;;;;;;5.03;2.00;;;;;;;;;;5020316;28;20495;-75
2022/08/07 13:09:31;;;;;;;6.10;2.75;;;;;;;;;;5070694;28;20032;-75
2022/08/07 13:11:57;;;;;;;3.80;2.17;;;;;;;;;;5070852;28;20031;-75
2022/08/07 13:14:23;;;;;;;3.65;1.83;;;;;;;;;;5082500;28;20020;-74
2022/08/07 13:17:01;;;;;;;3.92;1.55;;;;;;;;;;5090694;28;20503;-76
2022/08/07 13:19:33;;;;;;;5.60;1.88;;;;;;;;;;5091201;28;20036;-75
2022/08/07 13:22:02;;;;;;;6.40;2.03;;;;;;;;;;5090069;28;20052;-77
2022/08/07 13:24:37;;;;;;;5.65;1.70;;;;;;;;;;5078671;28;20032;-75
2022/08/07 13:27:09;;;;;;;4.75;1.92;;;;;;;;;;5070985;28;20052;-75
2022/08/07 13:29:41;;;;;;;4.65;2.22;;;;;;;;;;5072142;28;20025;-75
2022/08/07 13:32:14;;;;;;;6.25;1.90;;;;;;;;;;5070844;28;20103;-75
2022/08/07 13:35:00;;;;;;;4.80;1.75;;;;;;;;;;5084411;28;20072;-75
2022/08/07 13:37:41;;;;;;;4.93;2.28;;;;;;;;;;5074359;28;20107;-76
2022/08/07 13:40:25;;;;;;;3.33;1.77;;;;;;;;;;5070195;28;20040;-75
2022/08/07 13:42:52;;;;;;;7.68;2.10;;;;;;;;;;5070445;28;20050;-75
2022/08/07 13:45:20;;;;;;;3.92;2.13;;;;;;;;;;5088900;28;20031;-75
2022/08/07 13:47:47;;;;;;;3.58;1.75;;;;;;;;;;5090956;28;20035;-75
2022/08/07 13:50:13;;;;;;;4.28;1.88;;;;;;;;;;5090393;28;20081;-76
2022/08/07 13:52:43;;;;;;;3.88;1.95;;;;;;;;;;5090894;28;20073;-77
2022/08/07 13:55:15;;;;;;;4.95;2.50;;;;;;;;;;5091390;28;20036;-76
2022/08/07 13:57:43;;;;;;;4.38;1.90;;;;;;;;;;5086506;28;20036;-79
2022/08/07 14:00:10;;;;;;;3.63;1.50;;;;;;;;;;5078205;28;20040;-77
2022/08/07 14:02:37;;;;;;;6.47;1.65;;;;;;;;;;5079229;28;20029;-77
2022/08/07 14:05:12;;;;;;;29.65;5.13;;;;;;;;;;5071201;28;20098;-77
2022/08/07 14:07:42;;;;;;;22.67;4.05;;;;;;;;;;5094965;28;20512;-76
2022/08/07 14:10:09;;;;;;;29.50;4.65;;;;;;;;;;5094349;28;20592;-76
2022/08/07 14:12:44;;;;;;;51.45;7.53;;;;;;;;;;5096152;28;20032;-76
2022/08/07 14:15:17;;;;;;;48.85;7.30;;;;;;;;;;5097154;28;20081;-77
2022/08/07 14:17:44;;;;;;;50.97;8.13;;;;;;;;;;5100756;28;20022;-76
2022/08/07 14:20:17;;;;;;;16.33;3.53;;;;;;;;;;5102398;28;20069;-77
2022/08/07 14:22:48;;;;;;;7.05;2.10;;;;;;;;;;5102631;28;20031;-76
2022/08/07 14:25:15;;;;;;;13.50;3.42;;;;;;;;;;5078323;28;20029;-77